sensor_id;sensor_type;location;lat;lon;timestamp;pressure;altitude;pressure_sealevel;temperature;humidity
77749;BME280;66938;52.084;5.228;2023-12-07T00:00:12;102105.0;;;0.41;100.0
77749;BME280;66938;52.084;5.228;2023-12-07T00:03:25;102108.0;;;0.38;100.0
77749;BME280;66938;52.084;5.228;2023-12-07T00:05:01;102108.0;;;0.29;100.0
77749;BME280;66938;52.084;5.228;2023-12-07T00:06:37;102103.0;;;0.29;100.0
77749;BME280;66938;52.084;5.228;2023-12-07T00:08:13;102106.0;;;0.3;100.0
77749;BME280;66938;52.084;5.228;2023-12-07T00:11:25;102107.0;;;0.23;100.0
77749;BME280;66938;52.084;5.228;2023-12-07T00:13:01;102108.0;;;0.15;100.0
77749;BME280;66938;52.084;5.228;2023-12-07T00:14:37;102111.0;;;0.23;100.0
77749;BME280;66938;52.084;5.228;2023-12-07T00:17:50;102112.0;;;0.41;100.0
77749;BME280;66938;52.084;5.228;2023-12-07T00:19:26;102107.0;;;0.54;100.0
77749;BME280;66938;52.084;5.228;2023-12-07T00:21:02;102105.0;;;0.54;100.0
77749;BME280;66938;52.084;5.228;2023-12-07T00:24:14;102102.0;;;0.58;100.0
77749;BME280;66938;52.084;5.228;2023-12-07T00:25:50;102091.0;;;0.53;100.0
77749;BME280;66938;52.084;5.228;2023-12-07T00:27:26;102091.0;;;0.41;100.0
77749;BME280;66938;52.084;5.228;2023-12-07T00:30:38;102087.0;;;0.4;100.0
77749;BME280;66938;52.084;5.228;2023-12-07T00:32:14;102087.0;;;0.35;100.0
77749;BME280;66938;52.084;5.228;2023-12-07T00:33:51;102086.0;;;0.24;100.0
77749;BME280;66938;52.084;5.228;2023-12-07T00:35:27;102086.0;;;0.27;100.0
77749;BME280;66938;52.084;5.228;2023-12-07T00:38:39;102084.0;;;0.19;100.0
77749;BME280;66938;52.084;5.228;2023-12-07T00:40:15;102080.0;;;0.12;100.0
77749;BME280;66938;52.084;5.228;2023-12-07T00:41:51;102080.0;;;0.15;100.0
77749;BME280;66938;52.084;5.228;2023-12-07T00:45:04;102075.0;;;0.12;100.0
77749;BME280;66938;52.084;5.228;2023-12-07T00:46:40;102078.0;;;0.05;100.0
77749;BME280;66938;52.084;5.228;2023-12-07T00:48:17;102072.0;;;0.06;100.0
77749;BME280;66938;52.084;5.228;2023-12-07T00:51:29;102078.0;;;0.01;100.0
77749;BME280;66938;52.084;5.228;2023-12-07T00:53:05;102083.0;;;-0.02;100.0
77749;BME280;66938;52.084;5.228;2023-12-07T00:54:41;102082.0;;;0.0;100.0
77749;BME280;66938;52.084;5.228;2023-12-07T00:56:17;102082.0;;;-0.04;100.0
77749;BME280;66938;52.084;5.228;2023-12-07T00:59:29;102083.0;;;-0.08;100.0
77749;BME280;66938;52.084;5.228;2023-12-07T01:01:05;102082.0;;;-0.05;100.0
77749;BME280;66938;52.084;5.228;2023-12-07T01:02:41;102080.0;;;-0.06;100.0
77749;BME280;66938;52.084;5.228;2023-12-07T01:05:54;102084.0;;;-0.17;100.0
77749;BME280;66938;52.084;5.228;2023-12-07T01:07:30;102087.0;;;-0.09;100.0
77749;BME280;66938;52.084;5.228;2023-12-07T01:09:06;102090.0;;;-0.04;100.0
77749;BME280;66938;52.084;5.228;2023-12-07T01:12:18;102091.0;;;0.02;100.0
77749;BME280;66938;52.084;5.228;2023-12-07T01:13:54;102094.0;;;0.04;100.0
77749;BME280;66938;52.084;5.228;2023-12-07T01:15:30;102094.0;;;-0.04;100.0
77749;BME280;66938;52.084;5.228;2023-12-07T01:18:42;102094.0;;;-0.08;100.0
77749;BME280;66938;52.084;5.228;2023-12-07T01:20:19;102098.0;;;-0.14;100.0
77749;BME280;66938;52.084;5.228;2023-12-07T01:21:55;102095.0;;;-0.19;100.0
77749;BME280;66938;52.084;5.228;2023-12-07T01:23:31;102094.0;;;-0.16;100.0
77749;BME280;66938;52.084;5.228;2023-12-07T01:26:44;102100.0;;;-0.17;100.0
77749;BME280;66938;52.084;5.228;2023-12-07T01:28:20;102100.0;;;-0.18;100.0
77749;BME280;66938;52.084;5.228;2023-12-07T01:29:56;102102.0;;;-0.1;100.0
77749;BME280;66938;52.084;5.228;2023-12-07T01:33:08;102108.0;;;-0.13;100.0
77749;BME280;66938;52.084;5.228;2023-12-07T01:34:44;102110.0;;;-0.1;100.0
77749;BME280;66938;52.084;5.228;2023-12-07T01:36:21;102105.0;;;-0.07;100.0
77749;BME280;66938;52.084;5.228;2023-12-07T01:39:33;102108.0;;;-0.1;100.0
77749;BME280;66938;52.084;5.228;2023-12-07T01:41:09;102108.0;;;-0.13;100.0
77749;BME280;66938;52.084;5.228;2023-12-07T01:42:49;102107.0;;;-0.06;100.0
77749;BME280;66938;52.084;5.228;2023-12-07T01:44:26;102107.0;;;-0.13;100.0
77749;BME280;66938;52.084;5.228;2023-12-07T01:47:39;102110.0;;;0.01;100.0
77749;BME280;66938;52.084;5.228;2023-12-07T01:49:15;102107.0;;;-0.15;100.0
77749;BME280;66938;52.084;5.228;2023-12-07T01:50:52;102114.0;;;-0.19;100.0
77749;BME280;66938;52.084;5.228;2023-12-07T01:54:05;102108.0;;;-0.25;100.0
77749;BME280;66938;52.084;5.228;2023-12-07T01:55:41;102112.0;;;-0.32;100.0
77749;BME280;66938;52.084;5.228;2023-12-07T01:57:19;102106.0;;;-0.33;100.0
77749;BME280;66938;52.084;5.228;2023-12-07T02:00:31;102114.0;;;-0.37;100.0
77749;BME280;66938;52.084;5.228;2023-12-07T02:02:09;102114.0;;;-0.38;100.0
77749;BME280;66938;52.084;5.228;2023-12-07T02:03:45;102117.0;;;-0.27;100.0
77749;BME280;66938;52.084;5.228;2023-12-07T02:05:22;102112.0;;;-0.34;100.0
77749;BME280;66938;52.084;5.228;2023-12-07T02:08:37;102107.0;;;-0.25;100.0
77749;BME280;66938;52.084;5.228;2023-12-07T02:10:13;102115.0;;;-0.24;100.0
77749;BME280;66938;52.084;5.228;2023-12-07T02:11:49;102115.0;;;-0.17;100.0
77749;BME280;66938;52.084;5.228;2023-12-07T02:15:02;102108.0;;;-0.07;100.0
77749;BME280;66938;52.084;5.228;2023-12-07T02:16:43;102106.0;;;-0.16;100.0
77749;BME280;66938;52.084;5.228;2023-12-07T02:18:31;102112.0;;;-0.13;100.0
77749;BME280;66938;52.084;5.228;2023-12-07T02:20:21;102108.0;;;-0.17;100.0
77749;BME280;66938;52.084;5.228;2023-12-07T02:23:46;102105.0;;;-0.27;100.0
77749;BME280;66938;52.084;5.228;2023-12-07T02:25:26;102109.0;;;-0.3;100.0
77749;BME280;66938;52.084;5.228;2023-12-07T02:27:04;102107.0;;;-0.3;100.0
77749;BME280;66938;52.084;5.228;2023-12-07T02:28:41;102109.0;;;-0.35;100.0
77749;BME280;66938;52.084;5.228;2023-12-07T02:31:53;102109.0;;;-0.34;100.0
77749;BME280;66938;52.084;5.228;2023-12-07T02:33:29;102109.0;;;-0.3;100.0
77749;BME280;66938;52.084;5.228;2023-12-07T02:35:06;102108.0;;;-0.21;100.0
77749;BME280;66938;52.084;5.228;2023-12-07T02:36:44;102105.0;;;-0.26;100.0
77749;BME280;66938;52.084;5.228;2023-12-07T02:40:02;102105.0;;;-0.27;100.0
77749;BME280;66938;52.084;5.228;2023-12-07T02:41:39;102105.0;;;-0.18;100.0
77749;BME280;66938;52.084;5.228;2023-12-07T02:43:15;102105.0;;;-0.23;100.0
77749;BME280;66938;52.084;5.228;2023-12-07T02:46:29;102101.0;;;-0.26;100.0
77749;BME280;66938;52.084;5.228;2023-12-07T02:48:05;102096.0;;;-0.28;100.0
77749;BME280;66938;52.084;5.228;2023-12-07T02:49:41;102093.0;;;-0.34;100.0
77749;BME280;66938;52.084;5.228;2023-12-07T02:52:53;102092.0;;;-0.35;100.0
77749;BME280;66938;52.084;5.228;2023-12-07T02:54:29;102098.0;;;-0.35;100.0
77749;BME280;66938;52.084;5.228;2023-12-07T02:56:06;102097.0;;;-0.22;100.0
77749;BME280;66938;52.084;5.228;2023-12-07T02:57:42;102102.0;;;-0.09;100.0
77749;BME280;66938;52.084;5.228;2023-12-07T03:00:54;102105.0;;;-0.13;100.0
77749;BME280;66938;52.084;5.228;2023-12-07T03:02:31;102100.0;;;-0.17;100.0
77749;BME280;66938;52.084;5.228;2023-12-07T03:04:07;102102.0;;;-0.09;100.0
77749;BME280;66938;52.084;5.228;2023-12-07T03:07:19;102102.0;;;-0.16;100.0
77749;BME280;66938;52.084;5.228;2023-12-07T03:08:55;102108.0;;;-0.15;100.0
77749;BME280;66938;52.084;5.228;2023-12-07T03:10:31;102108.0;;;-0.27;100.0
77749;BME280;66938;52.084;5.228;2023-12-07T03:13:43;102103.0;;;-0.14;100.0
77749;BME280;66938;52.084;5.228;2023-12-07T03:15:19;102103.0;;;-0.11;100.0
77749;BME280;66938;52.084;5.228;2023-12-07T03:16:55;102102.0;;;-0.14;100.0
77749;BME280;66938;52.084;5.228;2023-12-07T03:18:31;102110.0;;;-0.15;100.0
77749;BME280;66938;52.084;5.228;2023-12-07T03:21:44;102110.0;;;-0.18;100.0
77749;BME280;66938;52.084;5.228;2023-12-07T03:23:20;102114.0;;;-0.3;100.0
77749;BME280;66938;52.084;5.228;2023-12-07T03:24:56;102118.0;;;-0.3;100.0
77749;BME280;66938;52.084;5.228;2023-12-07T03:28:08;102115.0;;;-0.33;100.0
77749;BME280;66938;52.084;5.228;2023-12-07T03:29:44;102117.0;;;-0.34;100.0
77749;BME280;66938;52.084;5.228;2023-12-07T03:31:20;102121.0;;;-0.35;100.0
77749;BME280;66938;52.084;5.228;2023-12-07T03:34:32;102115.0;;;-0.25;100.0
77749;BME280;66938;52.084;5.228;2023-12-07T03:36:10;102120.0;;;-0.16;100.0
77749;BME280;66938;52.084;5.228;2023-12-07T03:37:47;102120.0;;;-0.17;100.0
77749;BME280;66938;52.084;5.228;2023-12-07T03:40:59;102122.0;;;-0.24;100.0
77749;BME280;66938;52.084;5.228;2023-12-07T03:42:35;102125.0;;;-0.31;100.0
77749;BME280;66938;52.084;5.228;2023-12-07T03:44:11;102122.0;;;-0.21;100.0
77749;BME280;66938;52.084;5.228;2023-12-07T03:45:47;102125.0;;;-0.21;100.0
77749;BME280;66938;52.084;5.228;2023-12-07T03:48:59;102125.0;;;-0.2;100.0
77749;BME280;66938;52.084;5.228;2023-12-07T03:50:35;102127.0;;;-0.28;100.0
77749;BME280;66938;52.084;5.228;2023-12-07T03:52:12;102127.0;;;-0.07;100.0
77749;BME280;66938;52.084;5.228;2023-12-07T03:55:24;102122.0;;;-0.11;100.0
77749;BME280;66938;52.084;5.228;2023-12-07T03:57:00;102130.0;;;-0.09;100.0
77749;BME280;66938;52.084;5.228;2023-12-07T03:58:36;102130.0;;;-0.12;100.0
77749;BME280;66938;52.084;5.228;2023-12-07T04:01:49;102123.0;;;-0.13;100.0
77749;BME280;66938;52.084;5.228;2023-12-07T04:03:25;102123.0;;;-0.11;100.0
77749;BME280;66938;52.084;5.228;2023-12-07T04:05:01;102119.0;;;-0.11;100.0
77749;BME280;66938;52.084;5.228;2023-12-07T04:08:13;102119.0;;;-0.07;100.0
77749;BME280;66938;52.084;5.228;2023-12-07T04:09:48;102124.0;;;-0.05;100.0
77749;BME280;66938;52.084;5.228;2023-12-07T04:11:25;102125.0;;;-0.11;100.0
77749;BME280;66938;52.084;5.228;2023-12-07T04:13:01;102130.0;;;-0.09;100.0
77749;BME280;66938;52.084;5.228;2023-12-07T04:16:13;102123.0;;;-0.07;100.0
77749;BME280;66938;52.084;5.228;2023-12-07T04:17:49;102122.0;;;-0.04;100.0
77749;BME280;66938;52.084;5.228;2023-12-07T04:19:26;102121.0;;;-0.08;100.0
77749;BME280;66938;52.084;5.228;2023-12-07T04:22:39;102121.0;;;-0.07;100.0
77749;BME280;66938;52.084;5.228;2023-12-07T04:24:15;102120.0;;;-0.1;100.0
77749;BME280;66938;52.084;5.228;2023-12-07T04:25:51;102123.0;;;0.03;100.0
77749;BME280;66938;52.084;5.228;2023-12-07T04:29:04;102125.0;;;0.0;100.0
77749;BME280;66938;52.084;5.228;2023-12-07T04:30:40;102122.0;;;0.06;100.0
77749;BME280;66938;52.084;5.228;2023-12-07T04:32:16;102116.0;;;0.0;100.0
77749;BME280;66938;52.084;5.228;2023-12-07T04:33:52;102115.0;;;0.11;100.0
77749;BME280;66938;52.084;5.228;2023-12-07T04:37:04;102120.0;;;0.03;100.0
77749;BME280;66938;52.084;5.228;2023-12-07T04:38:40;102117.0;;;0.05;100.0
77749;BME280;66938;52.084;5.228;2023-12-07T04:40:16;102120.0;;;0.01;100.0
77749;BME280;66938;52.084;5.228;2023-12-07T04:43:28;102118.0;;;0.08;100.0
77749;BME280;66938;52.084;5.228;2023-12-07T04:45:05;102119.0;;;0.1;100.0
77749;BME280;66938;52.084;5.228;2023-12-07T04:46:42;102125.0;;;0.03;100.0
77749;BME280;66938;52.084;5.228;2023-12-07T04:49:55;102127.0;;;0.18;100.0
77749;BME280;66938;52.084;5.228;2023-12-07T04:51:31;102118.0;;;0.22;100.0
77749;BME280;66938;52.084;5.228;2023-12-07T04:53:07;102119.0;;;0.29;100.0
77749;BME280;66938;52.084;5.228;2023-12-07T04:56:19;102124.0;;;0.37;100.0
77749;BME280;66938;52.084;5.228;2023-12-07T04:57:55;102119.0;;;0.36;100.0
77749;BME280;66938;52.084;5.228;2023-12-07T04:59:31;102115.0;;;0.26;100.0
77749;BME280;66938;52.084;5.228;2023-12-07T05:01:07;102109.0;;;0.29;100.0
77749;BME280;66938;52.084;5.228;2023-12-07T05:04:20;102106.0;;;0.36;100.0
77749;BME280;66938;52.084;5.228;2023-12-07T05:05:56;102106.0;;;0.33;100.0
77749;BME280;66938;52.084;5.228;2023-12-07T05:07:32;102111.0;;;0.38;100.0
77749;BME280;66938;52.084;5.228;2023-12-07T05:10:44;102112.0;;;0.4;100.0
77749;BME280;66938;52.084;5.228;2023-12-07T05:12:20;102107.0;;;0.49;100.0
77749;BME280;66938;52.084;5.228;2023-12-07T05:13:56;102107.0;;;0.47;100.0
77749;BME280;66938;52.084;5.228;2023-12-07T05:17:08;102110.0;;;0.48;100.0
77749;BME280;66938;52.084;5.228;2023-12-07T05:18:44;102117.0;;;0.57;100.0
77749;BME280;66938;52.084;5.228;2023-12-07T05:20:21;102122.0;;;0.57;100.0
77749;BME280;66938;52.084;5.228;2023-12-07T05:21:57;102121.0;;;0.58;100.0
77749;BME280;66938;52.084;5.228;2023-12-07T05:25:09;102118.0;;;0.64;100.0
77749;BME280;66938;52.084;5.228;2023-12-07T05:26:45;102118.0;;;0.54;100.0
77749;BME280;66938;52.084;5.228;2023-12-07T05:28:22;102107.0;;;0.6;100.0
77749;BME280;66938;52.084;5.228;2023-12-07T05:31:34;102101.0;;;0.69;100.0
77749;BME280;66938;52.084;5.228;2023-12-07T05:33:11;102103.0;;;0.66;100.0
77749;BME280;66938;52.084;5.228;2023-12-07T05:34:47;102105.0;;;0.72;100.0
77749;BME280;66938;52.084;5.228;2023-12-07T05:38:00;102100.0;;;0.75;100.0
77749;BME280;66938;52.084;5.228;2023-12-07T05:39:36;102101.0;;;0.71;100.0
77749;BME280;66938;52.084;5.228;2023-12-07T05:41:12;102090.0;;;0.8;100.0
77749;BME280;66938;52.084;5.228;2023-12-07T05:44:25;102086.0;;;0.72;100.0
77749;BME280;66938;52.084;5.228;2023-12-07T05:46:01;102087.0;;;0.77;100.0
77749;BME280;66938;52.084;5.228;2023-12-07T05:47:37;102086.0;;;0.8;100.0
77749;BME280;66938;52.084;5.228;2023-12-07T05:49:13;102090.0;;;0.9;100.0
77749;BME280;66938;52.084;5.228;2023-12-07T05:52:25;102089.0;;;0.84;100.0
77749;BME280;66938;52.084;5.228;2023-12-07T05:54:02;102097.0;;;0.89;100.0
77749;BME280;66938;52.084;5.228;2023-12-07T05:55:38;102097.0;;;0.96;100.0
77749;BME280;66938;52.084;5.228;2023-12-07T05:58:51;102100.0;;;0.88;100.0
77749;BME280;66938;52.084;5.228;2023-12-07T06:00:27;102099.0;;;0.92;100.0
77749;BME280;66938;52.084;5.228;2023-12-07T06:02:03;102102.0;;;0.9;100.0
77749;BME280;66938;52.084;5.228;2023-12-07T06:05:16;102100.0;;;0.88;100.0
77749;BME280;66938;52.084;5.228;2023-12-07T06:06:52;102102.0;;;0.9;100.0
77749;BME280;66938;52.084;5.228;2023-12-07T06:08:28;102109.0;;;0.84;100.0
77749;BME280;66938;52.084;5.228;2023-12-07T06:10:05;102110.0;;;0.81;100.0
77749;BME280;66938;52.084;5.228;2023-12-07T06:13:17;102110.0;;;0.87;100.0
77749;BME280;66938;52.084;5.228;2023-12-07T06:14:53;102109.0;;;0.91;100.0
77749;BME280;66938;52.084;5.228;2023-12-07T06:16:29;102114.0;;;0.9;100.0
77749;BME280;66938;52.084;5.228;2023-12-07T06:19:41;102116.0;;;0.81;100.0
77749;BME280;66938;52.084;5.228;2023-12-07T06:21:17;102112.0;;;0.79;100.0
77749;BME280;66938;52.084;5.228;2023-12-07T06:22:53;102113.0;;;0.76;100.0
77749;BME280;66938;52.084;5.228;2023-12-07T06:26:05;102111.0;;;0.69;100.0
77749;BME280;66938;52.084;5.228;2023-12-07T06:27:41;102115.0;;;0.7;100.0
77749;BME280;66938;52.084;5.228;2023-12-07T06:29:18;102116.0;;;0.76;100.0
77749;BME280;66938;52.084;5.228;2023-12-07T06:32:30;102116.0;;;0.72;100.0
77749;BME280;66938;52.084;5.228;2023-12-07T06:34:06;102116.0;;;0.69;100.0
77749;BME280;66938;52.084;5.228;2023-12-07T06:35:42;102114.0;;;0.7;100.0
77749;BME280;66938;52.084;5.228;2023-12-07T06:37:18;102117.0;;;0.62;100.0
77749;BME280;66938;52.084;5.228;2023-12-07T06:42:06;102106.0;;;0.64;100.0
77749;BME280;66938;52.084;5.228;2023-12-07T06:43:42;102110.0;;;0.72;100.0
77749;BME280;66938;52.084;5.228;2023-12-07T06:46:54;102116.0;;;0.67;100.0
77749;BME280;66938;52.084;5.228;2023-12-07T06:48:31;102121.0;;;0.81;100.0
77749;BME280;66938;52.084;5.228;2023-12-07T06:50:07;102116.0;;;0.78;100.0
77749;BME280;66938;52.084;5.228;2023-12-07T06:53:20;102123.0;;;0.75;100.0
77749;BME280;66938;52.084;5.228;2023-12-07T06:54:56;102120.0;;;0.78;100.0
77749;BME280;66938;52.084;5.228;2023-12-07T06:56:32;102112.0;;;0.89;100.0
77749;BME280;66938;52.084;5.228;2023-12-07T06:59:44;102112.0;;;0.8;100.0
77749;BME280;66938;52.084;5.228;2023-12-07T07:01:20;102108.0;;;0.85;100.0
77749;BME280;66938;52.084;5.228;2023-12-07T07:02:56;102113.0;;;0.83;100.0
77749;BME280;66938;52.084;5.228;2023-12-07T07:04:32;102110.0;;;0.94;100.0
77749;BME280;66938;52.084;5.228;2023-12-07T07:07:45;102105.0;;;0.95;100.0
77749;BME280;66938;52.084;5.228;2023-12-07T07:09:21;102103.0;;;0.87;100.0
77749;BME280;66938;52.084;5.228;2023-12-07T07:10:57;102108.0;;;0.82;100.0
77749;BME280;66938;52.084;5.228;2023-12-07T07:14:09;102110.0;;;0.8;100.0
77749;BME280;66938;52.084;5.228;2023-12-07T07:15:45;102113.0;;;0.72;100.0
77749;BME280;66938;52.084;5.228;2023-12-07T07:17:21;102113.0;;;0.75;100.0
77749;BME280;66938;52.084;5.228;2023-12-07T07:20:34;102118.0;;;0.7;100.0
77749;BME280;66938;52.084;5.228;2023-12-07T07:22:10;102117.0;;;0.66;100.0
77749;BME280;66938;52.084;5.228;2023-12-07T07:23:46;102113.0;;;0.7;100.0
77749;BME280;66938;52.084;5.228;2023-12-07T07:25:22;102111.0;;;0.75;100.0
77749;BME280;66938;52.084;5.228;2023-12-07T07:28:34;102113.0;;;0.84;100.0
77749;BME280;66938;52.084;5.228;2023-12-07T07:30:11;102117.0;;;0.74;100.0
77749;BME280;66938;52.084;5.228;2023-12-07T07:31:47;102120.0;;;0.68;100.0
77749;BME280;66938;52.084;5.228;2023-12-07T07:35:01;102119.0;;;0.7;100.0
77749;BME280;66938;52.084;5.228;2023-12-07T07:36:37;102117.0;;;0.7;100.0
77749;BME280;66938;52.084;5.228;2023-12-07T07:38:14;102121.0;;;0.75;100.0
77749;BME280;66938;52.084;5.228;2023-12-07T07:41:26;102118.0;;;0.72;100.0
77749;BME280;66938;52.084;5.228;2023-12-07T07:43:02;102117.0;;;0.75;100.0
77749;BME280;66938;52.084;5.228;2023-12-07T07:44:38;102118.0;;;0.83;100.0
77749;BME280;66938;52.084;5.228;2023-12-07T07:47:50;102120.0;;;0.78;100.0
77749;BME280;66938;52.084;5.228;2023-12-07T07:49:26;102119.0;;;0.74;100.0
77749;BME280;66938;52.084;5.228;2023-12-07T07:51:03;102111.0;;;0.77;100.0
77749;BME280;66938;52.084;5.228;2023-12-07T07:52:38;102116.0;;;0.83;100.0
77749;BME280;66938;52.084;5.228;2023-12-07T07:55:50;102128.0;;;0.83;100.0
77749;BME280;66938;52.084;5.228;2023-12-07T07:57:26;102131.0;;;0.97;100.0
77749;BME280;66938;52.084;5.228;2023-12-07T07:59:02;102131.0;;;0.97;100.0
77749;BME280;66938;52.084;5.228;2023-12-07T08:02:14;102132.0;;;0.94;100.0
77749;BME280;66938;52.084;5.228;2023-12-07T08:03:49;102135.0;;;0.93;100.0
77749;BME280;66938;52.084;5.228;2023-12-07T08:05:25;102126.0;;;0.93;100.0
77749;BME280;66938;52.084;5.228;2023-12-07T08:08:37;102126.0;;;0.97;100.0
77749;BME280;66938;52.084;5.228;2023-12-07T08:10:13;102118.0;;;0.99;100.0
77749;BME280;66938;52.084;5.228;2023-12-07T08:11:50;102121.0;;;0.98;100.0
77749;BME280;66938;52.084;5.228;2023-12-07T08:15:02;102120.0;;;0.99;100.0
77749;BME280;66938;52.084;5.228;2023-12-07T08:16:42;102119.0;;;0.93;100.0
77749;BME280;66938;52.084;5.228;2023-12-07T08:18:18;102130.0;;;0.86;100.0
77749;BME280;66938;52.084;5.228;2023-12-07T08:19:54;102119.0;;;0.92;100.0
77749;BME280;66938;52.084;5.228;2023-12-07T08:23:06;102122.0;;;0.94;100.0
77749;BME280;66938;52.084;5.228;2023-12-07T08:24:42;102126.0;;;1.02;100.0
77749;BME280;66938;52.084;5.228;2023-12-07T08:26:18;102126.0;;;0.95;100.0
77749;BME280;66938;52.084;5.228;2023-12-07T08:29:31;102116.0;;;0.97;100.0
77749;BME280;66938;52.084;5.228;2023-12-07T08:31:06;102118.0;;;0.99;100.0
77749;BME280;66938;52.084;5.228;2023-12-07T08:32:42;102121.0;;;0.94;100.0
77749;BME280;66938;52.084;5.228;2023-12-07T08:35:54;102118.0;;;1.01;100.0
77749;BME280;66938;52.084;5.228;2023-12-07T08:37:30;102116.0;;;1.03;100.0
77749;BME280;66938;52.084;5.228;2023-12-07T08:39:06;102121.0;;;0.98;100.0
77749;BME280;66938;52.084;5.228;2023-12-07T08:40:42;102121.0;;;0.97;100.0
77749;BME280;66938;52.084;5.228;2023-12-07T08:43:55;102124.0;;;1.04;100.0
77749;BME280;66938;52.084;5.228;2023-12-07T08:45:31;102119.0;;;1.05;100.0
77749;BME280;66938;52.084;5.228;2023-12-07T08:47:07;102114.0;;;1.1;100.0
77749;BME280;66938;52.084;5.228;2023-12-07T08:50:19;102112.0;;;1.15;100.0
77749;BME280;66938;52.084;5.228;2023-12-07T08:51:55;102114.0;;;1.06;100.0
77749;BME280;66938;52.084;5.228;2023-12-07T08:53:32;102113.0;;;1.12;100.0
77749;BME280;66938;52.084;5.228;2023-12-07T08:56:44;102112.0;;;1.16;100.0
77749;BME280;66938;52.084;5.228;2023-12-07T08:58:20;102113.0;;;1.15;100.0
77749;BME280;66938;52.084;5.228;2023-12-07T08:59:57;102103.0;;;1.18;100.0
77749;BME280;66938;52.084;5.228;2023-12-07T09:03:09;102102.0;;;1.18;100.0
77749;BME280;66938;52.084;5.228;2023-12-07T09:04:45;102110.0;;;1.17;100.0
77749;BME280;66938;52.084;5.228;2023-12-07T09:06:21;102113.0;;;1.19;100.0
77749;BME280;66938;52.084;5.228;2023-12-07T09:07:57;102108.0;;;1.15;100.0
77749;BME280;66938;52.084;5.228;2023-12-07T09:11:09;102102.0;;;1.18;100.0
77749;BME280;66938;52.084;5.228;2023-12-07T09:12:45;102095.0;;;1.18;100.0
77749;BME280;66938;52.084;5.228;2023-12-07T09:14:21;102096.0;;;1.17;100.0
77749;BME280;66938;52.084;5.228;2023-12-07T09:17:33;102095.0;;;1.17;100.0
77749;BME280;66938;52.084;5.228;2023-12-07T09:19:10;102089.0;;;1.21;100.0
77749;BME280;66938;52.084;5.228;2023-12-07T09:20:46;102100.0;;;1.28;100.0
77749;BME280;66938;52.084;5.228;2023-12-07T09:23:58;102105.0;;;1.27;100.0
77749;BME280;66938;52.084;5.228;2023-12-07T09:25:34;102097.0;;;1.32;100.0
77749;BME280;66938;52.084;5.228;2023-12-07T09:27:10;102098.0;;;1.32;100.0
77749;BME280;66938;52.084;5.228;2023-12-07T09:30:22;102098.0;;;1.32;100.0
77749;BME280;66938;52.084;5.228;2023-12-07T09:31:58;102105.0;;;1.36;100.0
77749;BME280;66938;52.084;5.228;2023-12-07T09:33:34;102109.0;;;1.38;100.0
77749;BME280;66938;52.084;5.228;2023-12-07T09:35:11;102114.0;;;1.43;100.0
77749;BME280;66938;52.084;5.228;2023-12-07T09:38:24;102120.0;;;1.48;100.0
77749;BME280;66938;52.084;5.228;2023-12-07T09:40:00;102123.0;;;1.52;100.0
77749;BME280;66938;52.084;5.228;2023-12-07T09:41:36;102119.0;;;1.48;100.0
77749;BME280;66938;52.084;5.228;2023-12-07T09:44:49;102113.0;;;1.48;100.0
77749;BME280;66938;52.084;5.228;2023-12-07T09:46:25;102101.0;;;1.48;100.0
77749;BME280;66938;52.084;5.228;2023-12-07T09:48:03;102100.0;;;1.57;100.0
77749;BME280;66938;52.084;5.228;2023-12-07T09:51:17;102092.0;;;1.57;100.0
77749;BME280;66938;52.084;5.228;2023-12-07T09:52:55;102086.0;;;1.64;100.0
77749;BME280;66938;52.084;5.228;2023-12-07T09:54:32;102090.0;;;1.65;100.0
77749;BME280;66938;52.084;5.228;2023-12-07T09:56:08;102077.0;;;1.65;100.0
77749;BME280;66938;52.084;5.228;2023-12-07T09:59:22;102075.0;;;1.65;100.0
77749;BME280;66938;52.084;5.228;2023-12-07T10:00:58;102073.0;;;1.49;100.0
77749;BME280;66938;52.084;5.228;2023-12-07T10:02:36;102077.0;;;1.51;100.0
77749;BME280;66938;52.084;5.228;2023-12-07T10:05:54;102081.0;;;1.56;100.0
77749;BME280;66938;52.084;5.228;2023-12-07T10:07:32;102077.0;;;1.62;100.0
77749;BME280;66938;52.084;5.228;2023-12-07T10:09:10;102068.0;;;1.54;100.0
77749;BME280;66938;52.084;5.228;2023-12-07T10:11:01;102068.0;;;1.6;100.0
77749;BME280;66938;52.084;5.228;2023-12-07T10:14:22;102063.0;;;1.69;100.0
77749;BME280;66938;52.084;5.228;2023-12-07T10:16:09;102062.0;;;1.67;100.0
77749;BME280;66938;52.084;5.228;2023-12-07T10:17:47;102060.0;;;1.63;100.0
77749;BME280;66938;52.084;5.228;2023-12-07T10:19:24;102061.0;;;1.62;100.0
77749;BME280;66938;52.084;5.228;2023-12-07T10:22:38;102052.0;;;1.62;100.0
77749;BME280;66938;52.084;5.228;2023-12-07T10:24:16;102051.0;;;1.64;100.0
77749;BME280;66938;52.084;5.228;2023-12-07T10:25:52;102048.0;;;1.7;100.0
77749;BME280;66938;52.084;5.228;2023-12-07T10:27:28;102044.0;;;1.68;100.0
77749;BME280;66938;52.084;5.228;2023-12-07T10:30:42;102045.0;;;1.73;100.0
77749;BME280;66938;52.084;5.228;2023-12-07T10:32:18;102036.0;;;1.76;100.0
77749;BME280;66938;52.084;5.228;2023-12-07T10:33:54;102033.0;;;1.77;100.0
77749;BME280;66938;52.084;5.228;2023-12-07T10:37:06;102028.0;;;1.78;100.0
77749;BME280;66938;52.084;5.228;2023-12-07T10:38:42;102030.0;;;1.7;100.0
77749;BME280;66938;52.084;5.228;2023-12-07T10:40:18;102030.0;;;1.75;100.0
77749;BME280;66938;52.084;5.228;2023-12-07T10:43:42;102027.0;;;1.78;100.0
77749;BME280;66938;52.084;5.228;2023-12-07T10:45:20;102026.0;;;1.77;100.0
77749;BME280;66938;52.084;5.228;2023-12-07T10:46:57;102028.0;;;1.7;100.0
77749;BME280;66938;52.084;5.228;2023-12-07T10:48:34;102025.0;;;1.77;100.0
77749;BME280;66938;52.084;5.228;2023-12-07T10:51:58;102018.0;;;1.85;100.0
77749;BME280;66938;52.084;5.228;2023-12-07T10:53:41;102014.0;;;1.9;100.0
77749;BME280;66938;52.084;5.228;2023-12-07T10:55:20;102013.0;;;1.75;100.0
77749;BME280;66938;52.084;5.228;2023-12-07T10:56:57;102006.0;;;1.77;100.0
77749;BME280;66938;52.084;5.228;2023-12-07T11:00:12;102002.0;;;1.84;100.0
77749;BME280;66938;52.084;5.228;2023-12-07T11:01:49;101998.0;;;1.91;100.0
77749;BME280;66938;52.084;5.228;2023-12-07T11:03:25;101999.0;;;1.93;100.0
77749;BME280;66938;52.084;5.228;2023-12-07T11:05:04;101998.0;;;1.87;100.0
77749;BME280;66938;52.084;5.228;2023-12-07T11:08:27;101992.0;;;1.94;100.0
77749;BME280;66938;52.084;5.228;2023-12-07T11:10:13;101987.0;;;1.92;100.0
77749;BME280;66938;52.084;5.228;2023-12-07T11:12:00;101980.0;;;1.99;100.0
77749;BME280;66938;52.084;5.228;2023-12-07T11:13:45;101976.0;;;2.04;100.0